Time;durP1;ratioP1;P1;durP2;ratioP2;P2;SDS_P1;SDS_P2;PMS_P1;PMS_P2;Temp;Humidity;BMP_temperature;BMP_pressure;BME280_temperature;BME280_humidity;BME280_pressure;Samples;Min_cycle;Max_cycle;Signal;HPM_P1;HPM_P2
2021/08/31 06:07:47;;;;;;;3.53;3.22;;;;;;;;;;5114743;28;20047;-62
2021/08/31 06:10:14;;;;;;;3.45;3.25;;;;;;;;;;5095011;28;20474;-62
2021/08/31 06:12:41;;;;;;;3.42;3.05;;;;;;;;;;5114282;28;20030;-62
2021/08/31 06:15:07;;;;;;;4.72;3.38;;;;;;;;;;5114356;28;20075;-62
2021/08/31 06:17:33;;;;;;;4.72;3.97;;;;;;;;;;5114168;28;20122;-62
2021/08/31 06:19:59;;;;;;;4.07;3.78;;;;;;;;;;5107270;28;20031;-62
2021/08/31 06:22:24;;;;;;;4.47;4.07;;;;;;;;;;5101817;28;20036;-62
2021/08/31 06:24:50;;;;;;;3.72;3.42;;;;;;;;;;5093588;28;20140;-61
2021/08/31 06:27:15;;;;;;;4.55;4.15;;;;;;;;;;5093780;28;20040;-62
2021/08/31 06:29:40;;;;;;;6.22;4.20;;;;;;;;;;5093951;28;20036;-62
2021/08/31 06:32:06;;;;;;;4.47;4.07;;;;;;;;;;5093962;28;20375;-68
2021/08/31 06:34:32;;;;;;;5.40;4.15;;;;;;;;;;5092966;28;20040;-67
2021/08/31 06:36:58;;;;;;;5.40;3.67;;;;;;;;;;5093713;28;20040;-67
2021/08/31 06:39:23;;;;;;;4.50;4.15;;;;;;;;;;5093471;28;20042;-67
2021/08/31 06:41:49;;;;;;;5.45;4.63;;;;;;;;;;5075576;28;20127;-67
2021/08/31 06:44:14;;;;;;;4.95;4.05;;;;;;;;;;5093465;28;20032;-67
2021/08/31 06:46:40;;;;;;;4.97;4.07;;;;;;;;;;5093322;28;20093;-67
2021/08/31 06:49:05;;;;;;;5.65;5.07;;;;;;;;;;5093419;28;20063;-67
2021/08/31 06:51:31;;;;;;;5.82;5.28;;;;;;;;;;5093893;28;20051;-67
2021/08/31 06:53:56;;;;;;;6.40;4.55;;;;;;;;;;5075278;28;20470;-67
2021/08/31 06:56:22;;;;;;;4.50;3.58;;;;;;;;;;5093656;28;20031;-67
2021/08/31 06:58:48;;;;;;;7.57;5.70;;;;;;;;;;5093174;28;20028;-67
2021/08/31 07:01:14;;;;;;;5.28;4.05;;;;;;;;;;5093274;28;20032;-67
2021/08/31 07:03:40;;;;;;;5.50;5.00;;;;;;;;;;5093169;28;20073;-67
2021/08/31 07:06:05;;;;;;;4.53;4.13;;;;;;;;;;5074673;28;20127;-67
2021/08/31 07:08:31;;;;;;;4.72;4.28;;;;;;;;;;5075230;28;20040;-67
2021/08/31 07:10:56;;;;;;;4.18;3.45;;;;;;;;;;5093257;28;20033;-68
2021/08/31 07:13:22;;;;;;;3.35;3.00;;;;;;;;;;5093120;28;20109;-68
2021/08/31 07:15:48;;;;;;;4.60;3.95;;;;;;;;;;5058642;28;20429;-68
2021/08/31 07:18:13;;;;;;;5.53;3.97;;;;;;;;;;5093194;28;20028;-68
2021/08/31 07:20:39;;;;;;;4.22;3.83;;;;;;;;;;5094433;28;20040;-68
2021/08/31 07:23:05;;;;;;;4.55;4.18;;;;;;;;;;5097346;28;20024;-68
2021/08/31 07:25:31;;;;;;;4.38;4.07;;;;;;;;;;5097086;28;20028;-68
2021/08/31 07:27:56;;;;;;;4.80;4.35;;;;;;;;;;5097135;28;20355;-68
2021/08/31 07:30:22;;;;;;;4.78;3.97;;;;;;;;;;5097031;28;20114;-68
2021/08/31 07:32:47;;;;;;;4.78;4.38;;;;;;;;;;5078936;28;20020;-68
2021/08/31 07:35:13;;;;;;;5.53;4.45;;;;;;;;;;5096546;28;20071;-68
2021/08/31 07:37:38;;;;;;;4.93;4.53;;;;;;;;;;5095875;28;20028;-68
2021/08/31 07:40:05;;;;;;;4.70;4.18;;;;;;;;;;5094812;28;20047;-68
2021/08/31 07:42:30;;;;;;;4.10;3.80;;;;;;;;;;5094722;28;20107;-68
2021/08/31 07:44:56;;;;;;;4.88;4.43;;;;;;;;;;5094648;28;20135;-68
2021/08/31 07:47:21;;;;;;;4.35;3.95;;;;;;;;;;5094493;28;20024;-68
2021/08/31 07:49:46;;;;;;;5.55;5.05;;;;;;;;;;5094389;28;20033;-68
2021/08/31 07:52:12;;;;;;;7.40;6.63;;;;;;;;;;5094801;28;20036;-68
2021/08/31 07:54:37;;;;;;;22.95;11.27;;;;;;;;;;5096516;28;20043;-68
2021/08/31 07:57:03;;;;;;;27.08;12.93;;;;;;;;;;5096420;28;20043;-68
2021/08/31 07:59:28;;;;;;;17.60;8.50;;;;;;;;;;5096039;28;20067;-68
2021/08/31 08:01:54;;;;;;;12.18;6.55;;;;;;;;;;5096353;28;20493;-68
2021/08/31 08:04:19;;;;;;;4.07;3.78;;;;;;;;;;5096290;28;20393;-68
2021/08/31 08:06:45;;;;;;;4.90;4.25;;;;;;;;;;5096308;28;20446;-68
2021/08/31 08:09:10;;;;;;;6.15;4.85;;;;;;;;;;5096187;28;20478;-68
2021/08/31 08:11:36;;;;;;;6.20;5.47;;;;;;;;;;5096158;28;20107;-68
2021/08/31 08:14:02;;;;;;;5.90;5.38;;;;;;;;;;5077959;28;20067;-68
2021/08/31 08:16:27;;;;;;;5.55;4.82;;;;;;;;;;5077912;28;20052;-68
2021/08/31 08:18:53;;;;;;;5.28;4.38;;;;;;;;;;5096004;28;20024;-68
2021/08/31 08:21:18;;;;;;;5.15;4.65;;;;;;;;;;5095943;28;20474;-68
2021/08/31 08:23:44;;;;;;;7.43;5.00;;;;;;;;;;5095853;28;20371;-68
2021/08/31 08:26:10;;;;;;;7.47;5.28;;;;;;;;;;5095963;28;20028;-68
2021/08/31 08:28:36;;;;;;;6.68;4.40;;;;;;;;;;5095929;28;20486;-68
2021/08/31 08:31:01;;;;;;;6.55;4.07;;;;;;;;;;5095901;28;20526;-67
2021/08/31 08:33:27;;;;;;;5.05;4.10;;;;;;;;;;5076395;28;20090;-67
2021/08/31 08:35:53;;;;;;;4.65;3.80;;;;;;;;;;5095719;28;20090;-67
2021/08/31 08:38:18;;;;;;;3.97;3.22;;;;;;;;;;5095561;28;20027;-67
2021/08/31 08:40:44;;;;;;;3.17;2.90;;;;;;;;;;5095650;28;20036;-67
2021/08/31 08:43:11;;;;;;;3.25;2.97;;;;;;;;;;5095519;28;20498;-67
2021/08/31 08:45:37;;;;;;;3.53;3.22;;;;;;;;;;5095560;28;20115;-67
2021/08/31 08:48:03;;;;;;;3.50;3.10;;;;;;;;;;5095649;28;20052;-68
2021/08/31 08:50:32;;;;;;;3.30;3.00;;;;;;;;;;5095407;28;20086;-68
2021/08/31 08:52:58;;;;;;;3.67;2.97;;;;;;;;;;5077062;28;20051;-68
2021/08/31 08:55:25;;;;;;;3.75;3.40;;;;;;;;;;5095446;28;20513;-68
2021/08/31 08:57:50;;;;;;;3.60;3.30;;;;;;;;;;5095485;28;20028;-67
2021/08/31 09:00:18;;;;;;;3.70;2.85;;;;;;;;;;5095270;28;20089;-68
2021/08/31 09:02:44;;;;;;;2.88;2.58;;;;;;;;;;5095289;28;20115;-68
2021/08/31 09:05:28;;;;;;;2.92;2.67;;;;;;;;;;5077258;28;20111;-68
2021/08/31 09:08:02;;;;;;;2.65;2.33;;;;;;;;;;5095096;28;20040;-68
2021/08/31 09:10:28;;;;;;;2.70;2.50;;;;;;;;;;5095108;28;20040;-67
2021/08/31 09:12:53;;;;;;;2.35;2.15;;;;;;;;;;5095060;28;20036;-68
2021/08/31 09:15:26;;;;;;;2.10;2.00;;;;;;;;;;5095168;28;20090;-68
2021/08/31 09:18:18;;;;;;;2.10;2.00;;;;;;;;;;5095570;28;20358;-68
2021/08/31 09:20:52;;;;;;;1.92;1.83;;;;;;;;;;5073656;28;20043;-67
2021/08/31 09:23:41;;;;;;;1.90;1.80;;;;;;;;;;5095093;28;20044;-67
2021/08/31 09:26:08;;;;;;;2.20;2.00;;;;;;;;;;5095083;28;20044;-68
2021/08/31 09:28:39;;;;;;;2.50;2.13;;;;;;;;;;5095159;28;20078;-68
2021/08/31 09:31:05;;;;;;;2.20;2.10;;;;;;;;;;5094780;28;20044;-67
2021/08/31 09:33:32;;;;;;;1.98;1.85;;;;;;;;;;5094353;28;20524;-67
2021/08/31 09:36:00;;;;;;;2.22;2.03;;;;;;;;;;5076825;28;20478;-67
2021/08/31 09:38:37;;;;;;;2.35;2.15;;;;;;;;;;5094806;28;20035;-68
2021/08/31 09:41:02;;;;;;;2.47;2.17;;;;;;;;;;5094680;28;20474;-67
2021/08/31 09:43:30;;;;;;;2.60;2.25;;;;;;;;;;5094293;28;20039;-67
2021/08/31 09:45:56;;;;;;;2.20;2.10;;;;;;;;;;5094552;28;20032;-67
2021/08/31 09:48:22;;;;;;;2.35;2.25;;;;;;;;;;5094472;28;20470;-68
2021/08/31 09:50:49;;;;;;;2.40;2.28;;;;;;;;;;5094813;28;20042;-67
2021/08/31 09:53:17;;;;;;;1.88;1.77;;;;;;;;;;5094433;28;20386;-68
2021/08/31 09:55:44;;;;;;;2.38;2.17;;;;;;;;;;5094231;28;20043;-68
2021/08/31 09:58:10;;;;;;;2.42;2.20;;;;;;;;;;5094240;28;20027;-68
2021/08/31 10:00:37;;;;;;;1.98;1.88;;;;;;;;;;5094426;28;20036;-68
2021/08/31 10:03:02;;;;;;;2.17;1.98;;;;;;;;;;5094276;28;20028;-68
2021/08/31 10:05:28;;;;;;;1.77;1.67;;;;;;;;;;5094249;28;20381;-68
2021/08/31 10:07:55;;;;;;;2.15;2.05;;;;;;;;;;5097127;28;20024;-68
2021/08/31 10:10:21;;;;;;;1.80;1.70;;;;;;;;;;5096001;28;20035;-68
2021/08/31 10:12:48;;;;;;;1.83;1.73;;;;;;;;;;5114155;28;20022;-68
2021/08/31 10:15:14;;;;;;;2.60;2.15;;;;;;;;;;5114212;28;20047;-68
2021/08/31 10:17:43;;;;;;;2.38;2.10;;;;;;;;;;5114582;28;20066;-68
2021/08/31 10:20:11;;;;;;;1.77;1.50;;;;;;;;;;5114568;28;20035;-68
2021/08/31 10:22:37;;;;;;;1.70;1.60;;;;;;;;;;5114260;28;20035;-68
2021/08/31 10:25:03;;;;;;;1.70;1.60;;;;;;;;;;5114140;28;20044;-68
2021/08/31 10:27:30;;;;;;;1.85;1.73;;;;;;;;;;5096176;28;20035;-68
2021/08/31 10:30:14;;;;;;;2.53;1.60;;;;;;;;;;5114369;28;20126;-68
2021/08/31 10:32:40;;;;;;;1.90;1.80;;;;;;;;;;5095793;28;20046;-68
2021/08/31 10:35:06;;;;;;;1.55;1.45;;;;;;;;;;5113591;28;20032;-68
2021/08/31 10:37:51;;;;;;;1.85;1.30;;;;;;;;;;5114212;28;20393;-68
2021/08/31 10:40:32;;;;;;;2.67;2.10;;;;;;;;;;5113824;28;20035;-68
2021/08/31 10:42:57;;;;;;;;;;;;;;;;;;5114483;28;20043;-68
2021/08/31 10:45:28;;;;;;;2.40;1.70;;;;;;;;;;5095393;28;19908;-68
2021/08/31 10:47:54;;;;;;;2.05;1.80;;;;;;;;;;5113965;28;20045;-68
2021/08/31 10:50:23;;;;;;;2.00;1.42;;;;;;;;;;5113917;28;20023;-68
2021/08/31 10:53:02;;;;;;;2.65;2.00;;;;;;;;;;5113768;28;20120;-68
2021/08/31 10:55:28;;;;;;;3.05;2.70;;;;;;;;;;5113346;28;20097;-68
2021/08/31 10:57:54;;;;;;;5.20;3.13;;;;;;;;;;5095549;28;20024;-68
2021/08/31 11:00:19;;;;;;;1.63;1.52;;;;;;;;;;5113828;28;20101;-68
2021/08/31 11:02:48;;;;;;;1.60;1.50;;;;;;;;;;5114047;28;20029;-68
2021/08/31 11:05:25;;;;;;;2.65;1.80;;;;;;;;;;5113692;28;20153;-68
2021/08/31 11:08:00;;;;;;;1.95;1.85;;;;;;;;;;5113656;28;20414;-68
2021/08/31 11:10:30;;;;;;;1.42;1.30;;;;;;;;;;5113808;28;20043;-68
2021/08/31 11:12:56;;;;;;;1.40;1.30;;;;;;;;;;5095684;28;20037;-67
2021/08/31 11:15:22;;;;;;;1.40;1.30;;;;;;;;;;5113554;28;20492;-68
2021/08/31 11:17:49;;;;;;;1.27;1.25;;;;;;;;;;5113649;28;20031;-68
2021/08/31 11:20:28;;;;;;;1.65;1.10;;;;;;;;;;5113647;28;20114;-68
2021/08/31 11:23:02;;;;;;;1.30;1.20;;;;;;;;;;5113581;28;20032;-68
2021/08/31 11:25:39;;;;;;;1.17;1.10;;;;;;;;;;5113505;28;20040;-68
2021/08/31 11:28:06;;;;;;;1.00;0.90;;;;;;;;;;5113033;28;20036;-67
2021/08/31 11:30:52;;;;;;;0.70;0.70;;;;;;;;;;5101044;28;20016;-68
2021/08/31 11:33:30;;;;;;;0.80;0.80;;;;;;;;;;5101116;28;20150;-68
2021/08/31 11:35:57;;;;;;;1.20;1.02;;;;;;;;;;5083068;28;20040;-68
2021/08/31 11:38:29;;;;;;;0.90;0.90;;;;;;;;;;5080633;28;20481;-68
2021/08/31 11:40:54;;;;;;;0.93;0.90;;;;;;;;;;5082932;28;20029;-68
2021/08/31 11:43:29;;;;;;;1.00;1.00;;;;;;;;;;5063151;28;20100;-68
2021/08/31 11:45:54;;;;;;;1.00;0.90;;;;;;;;;;5080732;28;20052;-68
2021/08/31 11:48:23;;;;;;;0.80;0.80;;;;;;;;;;5081329;28;20060;-67
2021/08/31 11:50:54;;;;;;;0.88;0.85;;;;;;;;;;5064414;28;20477;-67
2021/08/31 11:53:20;;;;;;;1.00;0.90;;;;;;;;;;5081598;28;20399;-66
2021/08/31 11:55:54;;;;;;;2.33;1.10;;;;;;;;;;5080431;28;20028;-68
2021/08/31 11:58:20;;;;;;;1.20;1.10;;;;;;;;;;5091900;28;20124;-68
2021/08/31 12:00:46;;;;;;;1.52;1.42;;;;;;;;;;5093035;28;20056;-68
2021/08/31 12:03:18;;;;;;;1.90;1.80;;;;;;;;;;5092337;28;20032;-61
2021/08/31 12:05:44;;;;;;;1.75;1.65;;;;;;;;;;5092824;28;20033;-61
2021/08/31 12:08:10;;;;;;;1.67;1.58;;;;;;;;;;5096415;28;20024;-62
2021/08/31 12:10:35;;;;;;;1.73;1.52;;;;;;;;;;5096600;28;20051;-61
2021/08/31 12:13:01;;;;;;;1.92;1.60;;;;;;;;;;5096064;28;20035;-62
2021/08/31 12:15:26;;;;;;;1.40;1.30;;;;;;;;;;5096105;28;20050;-62
2021/08/31 12:17:59;;;;;;;2.47;1.55;;;;;;;;;;5096176;28;20481;-62
2021/08/31 12:20:25;;;;;;;1.80;1.70;;;;;;;;;;5077873;28;20455;-61
2021/08/31 12:22:51;;;;;;;1.70;1.60;;;;;;;;;;5096263;28;20024;-62
2021/08/31 12:25:18;;;;;;;2.80;1.55;;;;;;;;;;5078070;28;20441;-61
2021/08/31 12:27:45;;;;;;;1.52;1.42;;;;;;;;;;5095978;28;20020;-61
2021/08/31 12:30:12;;;;;;;1.90;1.73;;;;;;;;;;5095640;28;20509;-62
2021/08/31 12:32:39;;;;;;;1.77;1.67;;;;;;;;;;5096036;28;20032;-61
2021/08/31 12:35:25;;;;;;;1.60;1.42;;;;;;;;;;5109351;28;20044;-61
2021/08/31 12:38:06;;;;;;;1.48;1.38;;;;;;;;;;5098237;28;20042;-62
2021/08/31 12:40:35;;;;;;;1.20;1.15;;;;;;;;;;5098059;28;20085;-61
2021/08/31 12:43:09;;;;;;;1.30;1.25;;;;;;;;;;5116431;28;20020;-61
2021/08/31 12:45:35;;;;;;;1.25;1.25;;;;;;;;;;5097729;28;20393;-61
2021/08/31 12:48:01;;;;;;;1.10;1.10;;;;;;;;;;5116328;28;20036;-61
2021/08/31 12:50:27;;;;;;;1.55;1.00;;;;;;;;;;5116102;28;20032;-61
2021/08/31 12:52:56;;;;;;;1.27;1.17;;;;;;;;;;5116054;28;20098;-61
2021/08/31 12:55:26;;;;;;;1.30;1.23;;;;;;;;;;5116019;28;20097;-61
2021/08/31 12:57:51;;;;;;;1.40;1.30;;;;;;;;;;5116178;28;20031;-61
2021/08/31 13:00:18;;;;;;;1.38;1.27;;;;;;;;;;5115934;28;20035;-62
2021/08/31 13:02:43;;;;;;;1.77;1.63;;;;;;;;;;5115784;28;20389;-62
2021/08/31 13:05:11;;;;;;;1.83;1.73;;;;;;;;;;5115732;28;20493;-62
2021/08/31 13:07:36;;;;;;;1.40;1.30;;;;;;;;;;5115886;28;20031;-62
2021/08/31 13:10:02;;;;;;;1.55;1.42;;;;;;;;;;5080564;28;20039;-62
2021/08/31 13:12:27;;;;;;;1.40;1.30;;;;;;;;;;5115589;28;20027;-61
2021/08/31 13:14:53;;;;;;;1.40;1.30;;;;;;;;;;5097714;28;20042;-62
2021/08/31 13:17:18;;;;;;;1.52;1.42;;;;;;;;;;5115550;28;20036;-62
2021/08/31 13:19:45;;;;;;;1.23;1.20;;;;;;;;;;5096940;28;20040;-62
2021/08/31 13:22:10;;;;;;;2.72;1.27;;;;;;;;;;5097283;28;20078;-62
2021/08/31 13:24:36;;;;;;;1.15;1.15;;;;;;;;;;5115420;28;20039;-61
2021/08/31 13:27:01;;;;;;;1.30;1.20;;;;;;;;;;5114010;28;20582;-61
2021/08/31 13:29:27;;;;;;;1.45;1.30;;;;;;;;;;5112698;28;20039;-63
2021/08/31 13:31:53;;;;;;;1.58;1.48;;;;;;;;;;5094973;28;20032;-62
2021/08/31 13:34:20;;;;;;;1.45;1.35;;;;;;;;;;5111778;28;20034;-62
2021/08/31 13:36:46;;;;;;;2.45;1.98;;;;;;;;;;5094485;28;20096;-62
2021/08/31 13:39:14;;;;;;;2.78;1.80;;;;;;;;;;5112985;28;20028;-61
2021/08/31 13:41:41;;;;;;;1.55;1.45;;;;;;;;;;5113056;28;20027;-62
2021/08/31 13:44:07;;;;;;;2.08;1.80;;;;;;;;;;5114587;28;20122;-62
2021/08/31 13:46:33;;;;;;;1.80;1.65;;;;;;;;;;5114717;28;20067;-62
2021/08/31 13:48:59;;;;;;;3.53;1.48;;;;;;;;;;5114660;28;20477;-62
2021/08/31 13:51:24;;;;;;;1.60;1.50;;;;;;;;;;5114714;28;20058;-62
2021/08/31 13:53:50;;;;;;;1.95;1.75;;;;;;;;;;5096394;28;20028;-62
2021/08/31 13:56:15;;;;;;;3.35;1.98;;;;;;;;;;5114572;28;20035;-62
2021/08/31 13:58:41;;;;;;;3.75;1.83;;;;;;;;;;5114442;28;20073;-61
2021/08/31 14:01:06;;;;;;;1.85;1.70;;;;;;;;;;5114386;28;20036;-62
2021/08/31 14:03:32;;;;;;;2.33;1.80;;;;;;;;;;5096063;28;20496;-61
2021/08/31 14:05:57;;;;;;;3.00;2.08;;;;;;;;;;5114356;28;20035;-62
2021/08/31 14:08:23;;;;;;;2.22;1.88;;;;;;;;;;5095948;28;20027;-62
2021/08/31 14:10:48;;;;;;;1.52;1.42;;;;;;;;;;5114057;28;20048;-64
2021/08/31 14:13:13;;;;;;;1.83;1.70;;;;;;;;;;5114161;28;20050;-65
2021/08/31 14:15:40;;;;;;;1.70;1.60;;;;;;;;;;5114441;28;20040;-64
2021/08/31 14:18:06;;;;;;;2.05;1.88;;;;;;;;;;5095815;28;20066;-64
2021/08/31 14:20:32;;;;;;;1.95;1.70;;;;;;;;;;5114052;28;20036;-64
2021/08/31 14:22:57;;;;;;;1.80;1.70;;;;;;;;;;5114100;28;20027;-64
2021/08/31 14:25:23;;;;;;;2.10;2.00;;;;;;;;;;5113713;28;20035;-65
2021/08/31 14:27:48;;;;;;;2.28;2.17;;;;;;;;;;5095828;28;20027;-64
2021/08/31 14:30:14;;;;;;;2.78;2.58;;;;;;;;;;5112995;28;20048;-64
2021/08/31 14:32:40;;;;;;;3.60;2.35;;;;;;;;;;5113993;28;20035;-64
2021/08/31 14:35:06;;;;;;;2.67;2.58;;;;;;;;;;5113406;28;20129;-65
2021/08/31 14:37:32;;;;;;;2.40;2.30;;;;;;;;;;5106758;28;20035;-64
2021/08/31 14:39:57;;;;;;;2.42;2.33;;;;;;;;;;5109836;28;20118;-64
2021/08/31 14:42:23;;;;;;;2.38;2.28;;;;;;;;;;5109083;28;20054;-64
2021/08/31 14:44:48;;;;;;;2.30;2.17;;;;;;;;;;5108998;28;20119;-64
2021/08/31 14:47:14;;;;;;;2.50;2.30;;;;;;;;;;5090443;28;20097;-64
2021/08/31 14:49:39;;;;;;;3.25;3.05;;;;;;;;;;5109165;28;20039;-64
2021/08/31 14:52:05;;;;;;;2.45;2.25;;;;;;;;;;5090385;28;20569;-64
2021/08/31 14:54:30;;;;;;;2.28;2.17;;;;;;;;;;5108560;28;20039;-64
2021/08/31 14:56:57;;;;;;;2.58;2.38;;;;;;;;;;5108687;28;20050;-64
2021/08/31 14:59:22;;;;;;;2.35;2.25;;;;;;;;;;5108746;28;20024;-64
2021/08/31 15:01:48;;;;;;;2.50;2.38;;;;;;;;;;5108774;28;20050;-64
2021/08/31 15:04:13;;;;;;;2.35;2.22;;;;;;;;;;5108876;28;20047;-64
2021/08/31 15:06:39;;;;;;;2.72;2.55;;;;;;;;;;5108753;28;20043;-64
2021/08/31 15:09:06;;;;;;;2.10;2.00;;;;;;;;;;5090194;28;20110;-64
2021/08/31 15:11:32;;;;;;;2.30;2.10;;;;;;;;;;5108762;28;20047;-64
2021/08/31 15:13:58;;;;;;;2.65;2.45;;;;;;;;;;5108538;28;20031;-64
2021/08/31 15:46:41;;;;;;;1.00;1.00;;;;;;;;;;5113449;28;20051;-63
2021/08/31 15:49:07;;;;;;;1.70;1.60;;;;;;;;;;5115044;28;20035;-63
2021/08/31 15:51:33;;;;;;;1.40;1.30;;;;;;;;;;5117224;28;20478;-63
2021/08/31 15:53:59;;;;;;;4.53;1.40;;;;;;;;;;5117212;28;20027;-63
2021/08/31 15:56:24;;;;;;;1.60;1.50;;;;;;;;;;5117293;28;20046;-63
2021/08/31 15:58:50;;;;;;;1.40;1.30;;;;;;;;;;5117255;28;20034;-63
2021/08/31 16:01:15;;;;;;;1.50;1.25;;;;;;;;;;5117076;28;20032;-63
2021/08/31 16:03:40;;;;;;;2.00;1.75;;;;;;;;;;5117250;28;20503;-63
2021/08/31 16:06:06;;;;;;;1.73;1.40;;;;;;;;;;5117263;28;20101;-63
2021/08/31 16:08:32;;;;;;;1.85;1.05;;;;;;;;;;5117065;28;20027;-63
2021/08/31 16:11:08;;;;;;;1.35;1.13;;;;;;;;;;5117222;28;20046;-63
2021/08/31 16:13:33;;;;;;;2.40;1.10;;;;;;;;;;5117136;28;20044;-63
2021/08/31 16:15:59;;;;;;;1.20;1.10;;;;;;;;;;5116914;28;20036;-64
2021/08/31 16:18:24;;;;;;;4.47;3.95;;;;;;;;;;5116883;28;20035;-64
2021/08/31 16:20:50;;;;;;;1.70;1.60;;;;;;;;;;5116693;28;20052;-64
2021/08/31 16:23:15;;;;;;;1.60;0.90;;;;;;;;;;5097993;28;20115;-63
2021/08/31 16:25:41;;;;;;;0.90;0.90;;;;;;;;;;5098491;28;20145;-63
2021/08/31 16:28:06;;;;;;;0.80;0.80;;;;;;;;;;5098351;28;20047;-64
2021/08/31 16:30:32;;;;;;;0.80;0.80;;;;;;;;;;5116551;28;20035;-63
2021/08/31 16:32:57;;;;;;;0.82;0.82;;;;;;;;;;5116631;28;20118;-63
2021/08/31 16:35:23;;;;;;;0.70;0.70;;;;;;;;;;5097535;28;20047;-64
2021/08/31 16:37:48;;;;;;;0.80;0.80;;;;;;;;;;5098693;28;20489;-63
2021/08/31 16:40:14;;;;;;;0.75;0.68;;;;;;;;;;5098045;28;20038;-64
2021/08/31 16:42:40;;;;;;;0.70;0.70;;;;;;;;;;5116433;28;20039;-63
2021/08/31 16:45:07;;;;;;;1.48;0.80;;;;;;;;;;5116466;28;20046;-64
2021/08/31 16:47:32;;;;;;;1.02;1.02;;;;;;;;;;5116338;28;20039;-64
2021/08/31 16:49:58;;;;;;;1.02;1.02;;;;;;;;;;5080965;28;20032;-64
2021/08/31 16:52:23;;;;;;;2.40;1.73;;;;;;;;;;5116057;28;20035;-63
2021/08/31 16:54:49;;;;;;;1.70;1.40;;;;;;;;;;5096991;28;20031;-63
2021/08/31 16:57:14;;;;;;;1.60;1.50;;;;;;;;;;5106143;28;20482;-63
2021/08/31 16:59:40;;;;;;;1.10;1.00;;;;;;;;;;5095459;28;20028;-63
2021/08/31 17:02:06;;;;;;;1.17;1.08;;;;;;;;;;5095430;28;20036;-63
2021/08/31 17:04:32;;;;;;;0.90;0.90;;;;;;;;;;5095228;28;20422;-63
2021/08/31 17:06:57;;;;;;;1.52;0.90;;;;;;;;;;5095183;28;20069;-63
2021/08/31 17:09:23;;;;;;;1.40;0.65;;;;;;;;;;5095141;28;20474;-63
2021/08/31 17:11:48;;;;;;;1.05;1.00;;;;;;;;;;5095353;28;20060;-63
2021/08/31 17:14:14;;;;;;;0.93;0.93;;;;;;;;;;5095673;28;20042;-63
2021/08/31 17:16:39;;;;;;;0.88;0.88;;;;;;;;;;5095239;28;20476;-63
2021/08/31 17:19:05;;;;;;;1.45;0.90;;;;;;;;;;5095055;28;20028;-63
2021/08/31 17:21:31;;;;;;;1.10;1.00;;;;;;;;;;5095281;28;20081;-65
2021/08/31 17:23:56;;;;;;;1.10;1.10;;;;;;;;;;5076899;28;20032;-65
2021/08/31 17:26:21;;;;;;;0.95;0.95;;;;;;;;;;5094769;28;20048;-64
2021/08/31 17:28:47;;;;;;;0.75;0.75;;;;;;;;;;5094943;28;20036;-64
2021/08/31 17:31:13;;;;;;;3.65;2.65;;;;;;;;;;5076597;28;20455;-65
2021/08/31 17:33:39;;;;;;;3.60;2.05;;;;;;;;;;5094766;28;20028;-65
2021/08/31 17:36:05;;;;;;;1.17;1.08;;;;;;;;;;5075988;28;20048;-65
2021/08/31 17:38:31;;;;;;;1.13;0.90;;;;;;;;;;5094598;28;20036;-65
2021/08/31 17:40:57;;;;;;;1.05;1.05;;;;;;;;;;5094410;28;20028;-64
2021/08/31 17:43:22;;;;;;;1.83;0.80;;;;;;;;;;5094828;28;20024;-64
2021/08/31 17:45:48;;;;;;;1.17;1.02;;;;;;;;;;5094408;28;20016;-64
2021/08/31 17:48:14;;;;;;;2.95;2.38;;;;;;;;;;5094434;28;20040;-64
2021/08/31 17:50:40;;;;;;;1.10;1.10;;;;;;;;;;5076580;28;20029;-64
2021/08/31 17:53:11;;;;;;;1.00;0.98;;;;;;;;;;5094389;28;20032;-64
2021/08/31 17:55:38;;;;;;;1.48;1.38;;;;;;;;;;5094239;28;20047;-64
2021/08/31 17:58:03;;;;;;;1.67;1.58;;;;;;;;;;5094440;28;20482;-64
2021/08/31 18:00:29;;;;;;;1.67;1.58;;;;;;;;;;5094295;28;20036;-64
2021/08/31 18:02:54;;;;;;;1.55;1.20;;;;;;;;;;5094226;28;20036;-65
2021/08/31 18:05:20;;;;;;;2.25;1.63;;;;;;;;;;5094185;28;20089;-65
2021/08/31 18:07:46;;;;;;;3.03;1.92;;;;;;;;;;5094561;28;20024;-65
2021/08/31 18:10:12;;;;;;;4.03;2.90;;;;;;;;;;5075923;28;20036;-64
2021/08/31 18:12:38;;;;;;;2.65;2.45;;;;;;;;;;5094068;28;20334;-64
2021/08/31 18:15:04;;;;;;;2.03;1.85;;;;;;;;;;5094100;28;20036;-64
2021/08/31 18:17:31;;;;;;;2.22;1.50;;;;;;;;;;5094082;28;20078;-64
2021/08/31 18:19:56;;;;;;;3.17;2.42;;;;;;;;;;5076360;28;20036;-64
2021/08/31 18:22:22;;;;;;;3.60;2.80;;;;;;;;;;5094259;28;20023;-64
2021/08/31 18:24:47;;;;;;;4.63;3.15;;;;;;;;;;5093934;28;20043;-64
2021/08/31 18:27:13;;;;;;;2.83;2.38;;;;;;;;;;5093720;28;20474;-64
2021/08/31 18:29:38;;;;;;;1.40;1.30;;;;;;;;;;5093825;28;20036;-65
2021/08/31 18:32:04;;;;;;;1.50;1.40;;;;;;;;;;5093731;28;20165;-65
2021/08/31 18:34:30;;;;;;;1.13;1.10;;;;;;;;;;5094021;28;20040;-64
2021/08/31 18:36:55;;;;;;;1.65;1.50;;;;;;;;;;5093732;28;20040;-65
2021/08/31 18:39:21;;;;;;;1.80;1.65;;;;;;;;;;5093723;28;20028;-64
2021/08/31 18:41:46;;;;;;;4.00;2.97;;;;;;;;;;5093911;28;20020;-64
2021/08/31 18:44:12;;;;;;;5.55;3.67;;;;;;;;;;5075556;28;20125;-65
2021/08/31 18:46:37;;;;;;;3.78;3.28;;;;;;;;;;5094121;28;20040;-65
2021/08/31 18:49:03;;;;;;;3.30;3.00;;;;;;;;;;5093720;28;20036;-65
2021/08/31 18:51:53;;;;;;;3.80;3.50;;;;;;;;;;5093561;28;20107;-65
2021/08/31 18:54:19;;;;;;;;;;;;;;;;;;5075763;28;20035;-65
2021/08/31 18:56:44;;;;;;;3.28;2.55;;;;;;;;;;5093506;28;19911;-65
2021/08/31 18:59:09;;;;;;;8.02;4.63;;;;;;;;;;5075654;28;20375;-65
2021/08/31 19:01:36;;;;;;;6.05;4.45;;;;;;;;;;5093169;28;20028;-64
2021/08/31 19:04:02;;;;;;;6.00;4.10;;;;;;;;;;5093763;28;20036;-66
2021/08/31 19:06:28;;;;;;;3.70;3.40;;;;;;;;;;5075308;28;20042;-66
2021/08/31 19:08:53;;;;;;;4.05;3.72;;;;;;;;;;5093436;28;20490;-65
2021/08/31 19:11:20;;;;;;;5.18;4.47;;;;;;;;;;5093295;28;20043;-65
2021/08/31 19:13:45;;;;;;;12.07;6.10;;;;;;;;;;5075431;28;20425;-64
2021/08/31 19:16:11;;;;;;;11.25;5.53;;;;;;;;;;5093771;28;20111;-64
2021/08/31 19:18:50;;;;;;;3.40;3.10;;;;;;;;;;5097368;28;20071;-64
2021/08/31 19:21:16;;;;;;;3.35;2.90;;;;;;;;;;5097500;28;20064;-63
2021/08/31 19:23:42;;;;;;;3.20;2.10;;;;;;;;;;5097673;28;20028;-65
2021/08/31 19:26:10;;;;;;;2.10;2.00;;;;;;;;;;5079428;28;20036;-65
2021/08/31 19:28:35;;;;;;;2.50;2.30;;;;;;;;;;5097523;28;20085;-65
2021/08/31 19:31:01;;;;;;;2.95;2.75;;;;;;;;;;5097443;28;20530;-65
2021/08/31 19:33:26;;;;;;;3.40;2.85;;;;;;;;;;5097332;28;20067;-64
2021/08/31 19:35:52;;;;;;;11.10;5.68;;;;;;;;;;5096717;28;20047;-65
2021/08/31 19:38:18;;;;;;;8.13;5.40;;;;;;;;;;5078927;28;20051;-64
2021/08/31 19:40:43;;;;;;;4.47;2.90;;;;;;;;;;5097233;28;20032;-65
2021/08/31 19:43:09;;;;;;;3.17;2.97;;;;;;;;;;5097016;28;20066;-65
2021/08/31 19:45:34;;;;;;;3.08;2.45;;;;;;;;;;5097152;28;20036;-65
2021/08/31 19:48:00;;;;;;;4.53;3.35;;;;;;;;;;5096945;28;20094;-65
2021/08/31 19:50:25;;;;;;;2.25;2.15;;;;;;;;;;5096973;28;20047;-65
2021/08/31 19:52:51;;;;;;;2.67;2.47;;;;;;;;;;5096305;28;20474;-66
2021/08/31 19:55:18;;;;;;;2.10;1.98;;;;;;;;;;5096658;28;20036;-67
2021/08/31 19:57:44;;;;;;;2.33;2.13;;;;;;;;;;5096952;28;20027;-66
2021/08/31 20:00:11;;;;;;;2.13;2.00;;;;;;;;;;5096892;28;20497;-66
2021/08/31 20:02:39;;;;;;;2.63;2.13;;;;;;;;;;5096691;28;20039;-66
2021/08/31 20:05:05;;;;;;;2.33;2.17;;;;;;;;;;5096533;28;20820;-66
2021/08/31 20:07:32;;;;;;;2.15;2.05;;;;;;;;;;5096570;28;20040;-66
2021/08/31 20:09:59;;;;;;;1.92;1.83;;;;;;;;;;5096785;28;20043;-66
2021/08/31 20:12:24;;;;;;;2.10;1.90;;;;;;;;;;5096571;28;20031;-66
2021/08/31 20:14:50;;;;;;;2.92;2.10;;;;;;;;;;5096609;28;20040;-66
2021/08/31 20:17:18;;;;;;;2.90;2.65;;;;;;;;;;5096405;28;20028;-66
2021/08/31 20:19:44;;;;;;;2.53;2.33;;;;;;;;;;5078261;28;20036;-66
2021/08/31 20:22:09;;;;;;;2.33;2.10;;;;;;;;;;5096481;28;20386;-64
2021/08/31 20:24:35;;;;;;;2.47;2.28;;;;;;;;;;5096208;28;20036;-64
2021/08/31 20:27:00;;;;;;;2.70;2.50;;;;;;;;;;5096149;28;20074;-64
2021/08/31 20:29:26;;;;;;;2.75;2.55;;;;;;;;;;5076876;28;20044;-64
2021/08/31 20:31:53;;;;;;;2.50;2.13;;;;;;;;;;5096204;28;20082;-64
2021/08/31 20:34:18;;;;;;;2.05;1.85;;;;;;;;;;5096199;28;20035;-64
2021/08/31 20:36:44;;;;;;;3.25;2.65;;;;;;;;;;5095587;28;20044;-64
2021/08/31 20:39:10;;;;;;;2.78;2.58;;;;;;;;;;5096193;28;20036;-67
2021/08/31 20:41:35;;;;;;;4.50;2.55;;;;;;;;;;5096116;28;20024;-67
2021/08/31 20:44:01;;;;;;;5.53;2.40;;;;;;;;;;5077767;28;20040;-67
2021/08/31 20:46:26;;;;;;;3.65;2.97;;;;;;;;;;5095341;28;20078;-67
2021/08/31 20:48:52;;;;;;;2.60;2.40;;;;;;;;;;5096076;28;20028;-67
2021/08/31 20:51:17;;;;;;;2.30;2.10;;;;;;;;;;5095811;28;20081;-67
2021/08/31 20:53:43;;;;;;;2.80;2.30;;;;;;;;;;5095754;28;20129;-67
2021/08/31 20:56:08;;;;;;;2.83;2.63;;;;;;;;;;5095818;28;20016;-67
2021/08/31 20:58:34;;;;;;;3.40;2.70;;;;;;;;;;5095641;28;20127;-67
2021/08/31 21:00:59;;;;;;;2.58;2.38;;;;;;;;;;5095669;28;20028;-67
2021/08/31 21:03:25;;;;;;;3.05;2.75;;;;;;;;;;5095652;28;20078;-67
2021/08/31 21:05:50;;;;;;;3.13;2.83;;;;;;;;;;5095246;28;20024;-68
2021/08/31 21:08:16;;;;;;;4.45;3.28;;;;;;;;;;5095669;28;20093;-68
2021/08/31 21:10:41;;;;;;;3.22;2.92;;;;;;;;;;5095312;28;20028;-67
2021/08/31 21:13:07;;;;;;;4.35;2.67;;;;;;;;;;5095218;28;20036;-67
2021/08/31 21:15:32;;;;;;;2.72;2.28;;;;;;;;;;5095207;28;20032;-67
2021/08/31 21:17:58;;;;;;;3.53;3.33;;;;;;;;;;5095180;28;20028;-67